sensor_id;sensor_type;location;lat;lon;timestamp;pressure;altitude;pressure_sealevel;temperature;humidity
38912;BME280;28444;48.056;14.408;2023-01-15T00:01:58;97028.91;;;4.71;85.33
38912;BME280;28444;48.056;14.408;2023-01-15T00:04:25;97023.31;;;4.69;85.41
38912;BME280;28444;48.056;14.408;2023-01-15T00:06:52;97022.06;;;4.78;85.05
38912;BME280;28444;48.056;14.408;2023-01-15T00:09:19;97012.13;;;4.73;85.07
38912;BME280;28444;48.056;14.408;2023-01-15T00:11:46;97016.81;;;4.72;85.11
38912;BME280;28444;48.056;14.408;2023-01-15T00:14:13;97007.56;;;4.68;85.70
38912;BME280;28444;48.056;14.408;2023-01-15T00:16:39;97005.41;;;4.66;86.01
38912;BME280;28444;48.056;14.408;2023-01-15T00:19:09;97011.91;;;4.63;86.30
38912;BME280;28444;48.056;14.408;2023-01-15T00:21:37;97008.06;;;4.51;85.31
38912;BME280;28444;48.056;14.408;2023-01-15T00:24:04;96994.88;;;4.55;85.85
38912;BME280;28444;48.056;14.408;2023-01-15T00:26:49;96984.38;;;4.44;86.74
38912;BME280;28444;48.056;14.408;2023-01-15T00:29:34;96979.84;;;4.46;86.83
38912;BME280;28444;48.056;14.408;2023-01-15T00:32:04;96984.03;;;4.47;86.10
38912;BME280;28444;48.056;14.408;2023-01-15T00:34:32;96980.75;;;4.41;86.52
38912;BME280;28444;48.056;14.408;2023-01-15T00:36:59;96975.69;;;4.45;87.49
38912;BME280;28444;48.056;14.408;2023-01-15T00:39:26;96975.47;;;4.35;88.35
38912;BME280;28444;48.056;14.408;2023-01-15T00:41:54;96978.63;;;4.19;88.58
38912;BME280;28444;48.056;14.408;2023-01-15T00:44:21;96979.72;;;4.23;88.04
38912;BME280;28444;48.056;14.408;2023-01-15T00:46:48;96967.81;;;4.19;88.38
38912;BME280;28444;48.056;14.408;2023-01-15T00:49:14;96972.69;;;4.20;88.87
38912;BME280;28444;48.056;14.408;2023-01-15T00:51:41;96974.53;;;4.25;88.64
38912;BME280;28444;48.056;14.408;2023-01-15T00:54:08;96960.03;;;4.15;89.14
38912;BME280;28444;48.056;14.408;2023-01-15T00:56:35;96965.78;;;4.12;89.70
38912;BME280;28444;48.056;14.408;2023-01-15T00:59:03;96965.78;;;4.12;89.24
38912;BME280;28444;48.056;14.408;2023-01-15T01:01:30;96957.50;;;4.17;89.13
38912;BME280;28444;48.056;14.408;2023-01-15T01:03:57;96957.31;;;4.15;88.67
38912;BME280;28444;48.056;14.408;2023-01-15T01:06:24;96961.44;;;4.08;88.75
38912;BME280;28444;48.056;14.408;2023-01-15T01:08:50;96958.13;;;4.02;88.85
38912;BME280;28444;48.056;14.408;2023-01-15T01:11:20;96951.88;;;4.07;89.06
38912;BME280;28444;48.056;14.408;2023-01-15T01:13:49;96949.34;;;4.09;88.92
38912;BME280;28444;48.056;14.408;2023-01-15T01:16:34;96938.38;;;4.15;89.19
38912;BME280;28444;48.056;14.408;2023-01-15T01:19:08;96933.47;;;4.14;88.31
38912;BME280;28444;48.056;14.408;2023-01-15T01:21:37;96924.69;;;4.21;87.82
38912;BME280;28444;48.056;14.408;2023-01-15T01:24:05;96927.88;;;4.12;87.75
38912;BME280;28444;48.056;14.408;2023-01-15T01:26:33;96931.66;;;4.08;88.24
38912;BME280;28444;48.056;14.408;2023-01-15T01:29:00;96924.09;;;4.07;88.04
38912;BME280;28444;48.056;14.408;2023-01-15T01:31:27;96919.72;;;4.04;88.01
38912;BME280;28444;48.056;14.408;2023-01-15T01:33:56;96917.41;;;4.08;88.07
38912;BME280;28444;48.056;14.408;2023-01-15T01:36:31;96915.75;;;4.05;87.83
38912;BME280;28444;48.056;14.408;2023-01-15T01:38:58;96916.53;;;4.13;87.71
38912;BME280;28444;48.056;14.408;2023-01-15T01:41:26;96906.06;;;4.17;87.85
38912;BME280;28444;48.056;14.408;2023-01-15T01:44:04;96904.81;;;4.10;86.14
38912;BME280;28444;48.056;14.408;2023-01-15T01:46:33;96907.69;;;4.13;86.26
38912;BME280;28444;48.056;14.408;2023-01-15T01:49:06;96907.16;;;4.14;86.08
38912;BME280;28444;48.056;14.408;2023-01-15T01:51:40;96899.03;;;4.14;85.51
38912;BME280;28444;48.056;14.408;2023-01-15T01:54:10;96882.97;;;4.16;85.53
38912;BME280;28444;48.056;14.408;2023-01-15T01:56:38;96893.47;;;4.20;85.33
38912;BME280;28444;48.056;14.408;2023-01-15T01:59:05;96874.53;;;4.20;85.56
38912;BME280;28444;48.056;14.408;2023-01-15T02:01:33;96883.72;;;4.24;85.02
38912;BME280;28444;48.056;14.408;2023-01-15T02:04:00;96874.00;;;4.21;84.68
38912;BME280;28444;48.056;14.408;2023-01-15T02:06:28;96868.00;;;4.15;85.51
38912;BME280;28444;48.056;14.408;2023-01-15T02:08:55;96870.53;;;4.21;85.14
38912;BME280;28444;48.056;14.408;2023-01-15T02:11:23;96873.09;;;4.19;84.66
38912;BME280;28444;48.056;14.408;2023-01-15T02:15:37;96863.31;;;4.16;84.66
38912;BME280;28444;48.056;14.408;2023-01-15T02:17:24;96852.28;;;4.14;83.57
38912;BME280;28444;48.056;14.408;2023-01-15T02:20:16;96849.41;;;4.12;84.56
38912;BME280;28444;48.056;14.408;2023-01-15T02:23:23;96854.63;;;4.09;84.91
38912;BME280;28444;48.056;14.408;2023-01-15T02:28:58;96844.75;;;4.20;86.16
38912;BME280;28444;48.056;14.408;2023-01-15T02:31:36;96849.41;;;4.12;85.75
38912;BME280;28444;48.056;14.408;2023-01-15T02:34:17;96847.38;;;3.97;86.23
38912;BME280;28444;48.056;14.408;2023-01-15T02:36:48;96845.19;;;3.95;86.63
38912;BME280;28444;48.056;14.408;2023-01-15T02:39:17;96852.06;;;3.96;86.91
38912;BME280;28444;48.056;14.408;2023-01-15T02:41:48;96847.28;;;3.81;86.54
38912;BME280;28444;48.056;14.408;2023-01-15T02:44:20;96846.53;;;3.81;86.83
38912;BME280;28444;48.056;14.408;2023-01-15T02:46:48;96836.28;;;3.79;86.06
38912;BME280;28444;48.056;14.408;2023-01-15T02:49:18;96845.28;;;3.74;86.58
38912;BME280;28444;48.056;14.408;2023-01-15T02:51:54;96845.28;;;3.74;86.76
38912;BME280;28444;48.056;14.408;2023-01-15T02:54:27;96846.16;;;3.77;86.86
38912;BME280;28444;48.056;14.408;2023-01-15T02:56:57;96840.03;;;3.76;86.16
38912;BME280;28444;48.056;14.408;2023-01-15T02:59:30;96834.09;;;3.78;86.55
38912;BME280;28444;48.056;14.408;2023-01-15T03:02:00;96836.28;;;3.79;86.67
38912;BME280;28444;48.056;14.408;2023-01-15T03:04:37;96828.19;;;3.87;86.59
38912;BME280;28444;48.056;14.408;2023-01-15T03:07:20;96818.47;;;3.92;86.60
38912;BME280;28444;48.056;14.408;2023-01-15T03:09:49;96816.13;;;3.96;86.89
38912;BME280;28444;48.056;14.408;2023-01-15T03:12:25;96821.59;;;4.03;86.34
38912;BME280;28444;48.056;14.408;2023-01-15T03:15:02;96820.50;;;4.06;87.03
38912;BME280;28444;48.056;14.408;2023-01-15T03:17:41;96814.56;;;4.00;86.08
38912;BME280;28444;48.056;14.408;2023-01-15T03:20:19;96814.53;;;3.93;86.78
38912;BME280;28444;48.056;14.408;2023-01-15T03:22:56;96808.25;;;4.05;86.27
38912;BME280;28444;48.056;14.408;2023-01-15T03:25:29;96799.63;;;4.15;86.09
38912;BME280;28444;48.056;14.408;2023-01-15T03:28:00;96792.97;;;4.16;84.07
38912;BME280;28444;48.056;14.408;2023-01-15T03:30:28;96779.78;;;4.20;85.06
38912;BME280;28444;48.056;14.408;2023-01-15T03:32:55;96785.78;;;4.26;85.60
38912;BME280;28444;48.056;14.408;2023-01-15T03:35:43;96794.75;;;4.21;85.56
38912;BME280;28444;48.056;14.408;2023-01-15T03:38:11;96780.34;;;4.18;86.28
38912;BME280;28444;48.056;14.408;2023-01-15T03:40:49;96780.00;;;4.22;86.19
38912;BME280;28444;48.056;14.408;2023-01-15T03:43:20;96767.53;;;4.19;85.87
38912;BME280;28444;48.056;14.408;2023-01-15T03:46:18;96765.34;;;4.17;86.01
38912;BME280;28444;48.056;14.408;2023-01-15T03:52:10;96758.69;;;4.10;85.61
38912;BME280;28444;48.056;14.408;2023-01-15T03:54:57;96768.94;;;4.04;86.62
38912;BME280;28444;48.056;14.408;2023-01-15T03:58:07;96775.78;;;4.05;86.82
38912;BME280;28444;48.056;14.408;2023-01-15T04:00:37;96784.59;;;3.98;87.23
38912;BME280;28444;48.056;14.408;2023-01-15T04:03:06;96776.47;;;3.98;87.75
38912;BME280;28444;48.056;14.408;2023-01-15T04:05:35;96777.03;;;3.97;88.10
38912;BME280;28444;48.056;14.408;2023-01-15T04:08:03;96782.63;;;4.06;88.34
38912;BME280;28444;48.056;14.408;2023-01-15T04:10:30;96779.91;;;3.99;88.32
38912;BME280;28444;48.056;14.408;2023-01-15T04:12:57;96773.97;;;4.00;88.39
38912;BME280;28444;48.056;14.408;2023-01-15T04:15:23;96786.09;;;4.07;87.97
38912;BME280;28444;48.056;14.408;2023-01-15T04:17:50;96791.69;;;4.17;87.21
38912;BME280;28444;48.056;14.408;2023-01-15T04:20:17;96804.88;;;4.28;86.47
38912;BME280;28444;48.056;14.408;2023-01-15T04:22:44;96813.34;;;4.17;87.30
38912;BME280;28444;48.056;14.408;2023-01-15T04:25:11;96819.81;;;4.14;87.57
38912;BME280;28444;48.056;14.408;2023-01-15T04:27:38;96819.66;;;4.19;86.08
38912;BME280;28444;48.056;14.408;2023-01-15T04:30:05;96815.09;;;4.06;86.15
38912;BME280;28444;48.056;14.408;2023-01-15T04:32:32;96816.38;;;4.05;85.83
38912;BME280;28444;48.056;14.408;2023-01-15T04:34:59;96820.50;;;4.06;83.63
38912;BME280;28444;48.056;14.408;2023-01-15T04:37:25;96834.22;;;4.01;84.41
38912;BME280;28444;48.056;14.408;2023-01-15T04:39:52;96845.97;;;4.03;85.29
38912;BME280;28444;48.056;14.408;2023-01-15T04:42:18;96847.78;;;4.08;85.48
38912;BME280;28444;48.056;14.408;2023-01-15T04:45:04;96832.81;;;4.15;83.05
38912;BME280;28444;48.056;14.408;2023-01-15T04:47:31;96835.56;;;4.23;81.92
38912;BME280;28444;48.056;14.408;2023-01-15T04:49:57;96831.25;;;4.27;83.24
38912;BME280;28444;48.056;14.408;2023-01-15T04:52:24;96814.81;;;4.25;82.49
38912;BME280;28444;48.056;14.408;2023-01-15T04:54:53;96834.16;;;4.29;82.80
38912;BME280;28444;48.056;14.408;2023-01-15T04:57:20;96825.81;;;4.20;84.55
38912;BME280;28444;48.056;14.408;2023-01-15T04:59:47;96808.25;;;4.05;86.40
38912;BME280;28444;48.056;14.408;2023-01-15T05:02:13;96764.38;;;3.92;87.06
38912;BME280;28444;48.056;14.408;2023-01-15T05:04:41;96729.72;;;3.82;87.54
38912;BME280;28444;48.056;14.408;2023-01-15T05:07:08;96692.91;;;3.72;88.48
38912;BME280;28444;48.056;14.408;2023-01-15T05:09:35;96716.66;;;3.66;89.70
38912;BME280;28444;48.056;14.408;2023-01-15T05:12:02;96712.00;;;3.74;89.00
38912;BME280;28444;48.056;14.408;2023-01-15T05:14:29;96717.47;;;3.81;88.35
38912;BME280;28444;48.056;14.408;2023-01-15T05:16:55;96703.75;;;3.87;88.96
38912;BME280;28444;48.056;14.408;2023-01-15T05:19:22;96691.88;;;3.90;88.56
38912;BME280;28444;48.056;14.408;2023-01-15T05:21:49;96676.22;;;4.04;86.35
38912;BME280;28444;48.056;14.408;2023-01-15T05:24:17;96673.16;;;4.00;86.90
38912;BME280;28444;48.056;14.408;2023-01-15T05:26:43;96658.34;;;3.93;88.38
38912;BME280;28444;48.056;14.408;2023-01-15T05:29:11;96655.09;;;4.02;90.48
38912;BME280;28444;48.056;14.408;2023-01-15T05:31:38;96671.31;;;4.02;89.66
38912;BME280;28444;48.056;14.408;2023-01-15T05:34:05;96671.31;;;4.02;90.52
38912;BME280;28444;48.056;14.408;2023-01-15T05:36:32;96659.63;;;4.07;88.33
38912;BME280;28444;48.056;14.408;2023-01-15T05:38:58;96664.84;;;4.05;88.68
38912;BME280;28444;48.056;14.408;2023-01-15T05:41:28;96661.94;;;3.96;88.99
38912;BME280;28444;48.056;14.408;2023-01-15T05:44:22;96660.50;;;3.95;89.87
38912;BME280;28444;48.056;14.408;2023-01-15T05:46:51;96655.25;;;3.81;91.09
38912;BME280;28444;48.056;14.408;2023-01-15T05:49:20;96648.22;;;3.78;90.26
38912;BME280;28444;48.056;14.408;2023-01-15T05:51:48;96634.88;;;3.88;91.35
38912;BME280;28444;48.056;14.408;2023-01-15T05:54:21;96621.19;;;4.01;90.17
38912;BME280;28444;48.056;14.408;2023-01-15T05:56:48;96627.50;;;4.12;89.49
38912;BME280;28444;48.056;14.408;2023-01-15T05:59:16;96630.78;;;4.18;89.23
38912;BME280;28444;48.056;14.408;2023-01-15T06:01:43;96620.84;;;4.20;90.36
38912;BME280;28444;48.056;14.408;2023-01-15T06:04:11;96614.91;;;4.14;91.12
38912;BME280;28444;48.056;14.408;2023-01-15T06:06:40;96598.81;;;4.16;91.54
38912;BME280;28444;48.056;14.408;2023-01-15T06:09:08;96590.19;;;4.25;91.93
38912;BME280;28444;48.056;14.408;2023-01-15T06:11:35;96577.38;;;4.26;91.07
38912;BME280;28444;48.056;14.408;2023-01-15T06:14:02;96571.03;;;4.31;90.35
38912;BME280;28444;48.056;14.408;2023-01-15T06:16:28;96563.44;;;4.37;90.43
38912;BME280;28444;48.056;14.408;2023-01-15T06:18:59;96561.28;;;4.28;90.93
38912;BME280;28444;48.056;14.408;2023-01-15T06:21:26;96554.09;;;4.23;91.25
38912;BME280;28444;48.056;14.408;2023-01-15T06:23:52;96548.66;;;4.23;92.50
38912;BME280;28444;48.056;14.408;2023-01-15T06:26:19;96542.72;;;4.17;92.53
38912;BME280;28444;48.056;14.408;2023-01-15T06:28:46;96530.66;;;4.18;92.79
38912;BME280;28444;48.056;14.408;2023-01-15T06:31:16;96529.03;;;4.15;92.13
38912;BME280;28444;48.056;14.408;2023-01-15T06:33:43;96533.72;;;4.14;91.08
38912;BME280;28444;48.056;14.408;2023-01-15T06:36:16;96531.72;;;4.07;89.94
38912;BME280;28444;48.056;14.408;2023-01-15T06:38:43;96526.69;;;4.03;90.67
38912;BME280;28444;48.056;14.408;2023-01-15T06:41:16;96519.66;;;4.00;90.71
38912;BME280;28444;48.056;14.408;2023-01-15T06:44:02;96534.25;;;4.05;89.03
38912;BME280;28444;48.056;14.408;2023-01-15T06:46:49;96536.97;;;4.05;88.57
38912;BME280;28444;48.056;14.408;2023-01-15T06:49:35;96534.97;;;4.05;87.87
38912;BME280;28444;48.056;14.408;2023-01-15T06:52:03;96531.00;;;4.06;86.92
38912;BME280;28444;48.056;14.408;2023-01-15T06:54:31;96529.56;;;3.98;86.35
38912;BME280;28444;48.056;14.408;2023-01-15T06:56:58;96560.03;;;3.98;86.75
38912;BME280;28444;48.056;14.408;2023-01-15T06:59:25;96541.09;;;3.83;87.80
38912;BME280;28444;48.056;14.408;2023-01-15T07:01:51;96514.25;;;3.85;88.46
38912;BME280;28444;48.056;14.408;2023-01-15T07:04:18;96531.72;;;3.99;89.83
38912;BME280;28444;48.056;14.408;2023-01-15T07:06:45;96543.63;;;4.12;87.84
38912;BME280;28444;48.056;14.408;2023-01-15T07:09:11;96541.09;;;4.21;86.27
38912;BME280;28444;48.056;14.408;2023-01-15T07:11:38;96528.31;;;4.14;86.74
38912;BME280;28444;48.056;14.408;2023-01-15T07:14:22;96516.56;;;4.19;86.27
38912;BME280;28444;48.056;14.408;2023-01-15T07:16:50;96522.88;;;4.22;86.38
38912;BME280;28444;48.056;14.408;2023-01-15T07:19:17;96546.34;;;4.04;86.21
38912;BME280;28444;48.056;14.408;2023-01-15T07:21:45;96544.34;;;4.20;86.60
38912;BME280;28444;48.056;14.408;2023-01-15T07:24:12;96529.19;;;4.17;88.02
38912;BME280;28444;48.056;14.408;2023-01-15T07:26:40;96524.50;;;4.17;88.50
38912;BME280;28444;48.056;14.408;2023-01-15T07:29:07;96521.41;;;4.28;88.57
38912;BME280;28444;48.056;14.408;2023-01-15T07:31:33;96538.38;;;4.37;88.37
38912;BME280;28444;48.056;14.408;2023-01-15T07:34:00;96535.66;;;4.37;87.17
38912;BME280;28444;48.056;14.408;2023-01-15T07:36:27;96552.81;;;4.31;88.43
38912;BME280;28444;48.056;14.408;2023-01-15T07:38:54;96558.41;;;4.26;86.80
38912;BME280;28444;48.056;14.408;2023-01-15T07:41:20;96539.50;;;4.10;87.58
38912;BME280;28444;48.056;14.408;2023-01-15T07:44:09;96549.03;;;4.27;89.47
38912;BME280;28444;48.056;14.408;2023-01-15T07:46:54;96559.13;;;4.26;88.81
38912;BME280;28444;48.056;14.408;2023-01-15T07:49:42;96593.59;;;4.26;86.97
38912;BME280;28444;48.056;14.408;2023-01-15T07:52:17;96573.94;;;4.33;88.04
38912;BME280;28444;48.056;14.408;2023-01-15T07:54:44;96567.06;;;4.24;88.25
38912;BME280;28444;48.056;14.408;2023-01-15T07:57:12;96587.81;;;4.29;86.57
38912;BME280;28444;48.056;14.408;2023-01-15T07:59:40;96584.41;;;4.21;87.61
38912;BME280;28444;48.056;14.408;2023-01-15T08:02:07;96576.47;;;4.16;88.51
38912;BME280;28444;48.056;14.408;2023-01-15T08:04:35;96591.97;;;4.23;89.55
38912;BME280;28444;48.056;14.408;2023-01-15T08:07:02;96622.66;;;4.25;88.59
38912;BME280;28444;48.056;14.408;2023-01-15T08:09:30;96584.75;;;4.41;88.13
38912;BME280;28444;48.056;14.408;2023-01-15T08:12:00;96610.34;;;4.32;89.41
38912;BME280;28444;48.056;14.408;2023-01-15T08:14:46;96603.16;;;4.19;89.92
38912;BME280;28444;48.056;14.408;2023-01-15T08:17:35;96625.16;;;4.31;90.86
38912;BME280;28444;48.056;14.408;2023-01-15T08:20:04;96617.03;;;4.31;89.95
38912;BME280;28444;48.056;14.408;2023-01-15T08:22:31;96611.63;;;4.16;88.83
38912;BME280;28444;48.056;14.408;2023-01-15T08:24:58;96602.97;;;4.32;89.70
38912;BME280;28444;48.056;14.408;2023-01-15T08:27:24;96626.06;;;4.41;89.56
38912;BME280;28444;48.056;14.408;2023-01-15T08:29:51;96593.38;;;4.39;89.57
38912;BME280;28444;48.056;14.408;2023-01-15T08:32:18;96593.22;;;4.45;88.99
38912;BME280;28444;48.056;14.408;2023-01-15T08:34:45;96603.50;;;4.46;89.05
38912;BME280;28444;48.056;14.408;2023-01-15T08:37:11;96580.25;;;4.43;89.35
38912;BME280;28444;48.056;14.408;2023-01-15T08:39:38;96600.63;;;4.52;89.79
38912;BME280;28444;48.056;14.408;2023-01-15T08:42:05;96586.91;;;4.57;87.36
38912;BME280;28444;48.056;14.408;2023-01-15T08:44:31;96588.16;;;4.56;88.00
38912;BME280;28444;48.056;14.408;2023-01-15T08:46:58;96579.28;;;4.64;88.61
38912;BME280;28444;48.056;14.408;2023-01-15T08:49:25;96592.28;;;4.65;89.13
38912;BME280;28444;48.056;14.408;2023-01-15T08:51:52;96583.63;;;4.67;88.86
38912;BME280;28444;48.056;14.408;2023-01-15T08:54:20;96591.00;;;4.74;90.67
38912;BME280;28444;48.056;14.408;2023-01-15T08:56:47;96591.19;;;4.76;88.88
38912;BME280;28444;48.056;14.408;2023-01-15T08:59:15;96580.69;;;4.80;88.94
38912;BME280;28444;48.056;14.408;2023-01-15T09:01:42;96576.34;;;4.85;88.80
38912;BME280;28444;48.056;14.408;2023-01-15T09:04:14;96566.91;;;4.93;88.61
38912;BME280;28444;48.056;14.408;2023-01-15T09:06:42;96573.75;;;5.02;88.73
38912;BME280;28444;48.056;14.408;2023-01-15T09:09:09;96569.63;;;4.93;88.69
38912;BME280;28444;48.056;14.408;2023-01-15T09:11:36;96565.66;;;4.94;88.30
38912;BME280;28444;48.056;14.408;2023-01-15T09:14:10;96572.91;;;4.92;88.14
38912;BME280;28444;48.056;14.408;2023-01-15T09:16:57;96571.50;;;4.83;88.22
38912;BME280;28444;48.056;14.408;2023-01-15T09:19:24;96569.47;;;4.91;88.93
38912;BME280;28444;48.056;14.408;2023-01-15T09:21:50;96565.84;;;4.89;88.67
38912;BME280;28444;48.056;14.408;2023-01-15T09:24:17;96559.31;;;4.99;89.19
38912;BME280;28444;48.056;14.408;2023-01-15T09:26:43;96564.72;;;4.99;89.28
38912;BME280;28444;48.056;14.408;2023-01-15T09:29:10;96560.94;;;5.02;89.36
38912;BME280;28444;48.056;14.408;2023-01-15T09:31:37;96552.44;;;5.06;88.32
38912;BME280;28444;48.056;14.408;2023-01-15T09:34:03;96553.31;;;5.09;88.67
38912;BME280;28444;48.056;14.408;2023-01-15T09:36:33;96545.16;;;5.16;88.75
38912;BME280;28444;48.056;14.408;2023-01-15T09:39:01;96545.91;;;5.09;87.84
38912;BME280;28444;48.056;14.408;2023-01-15T09:41:55;96544.09;;;5.12;88.89
38912;BME280;28444;48.056;14.408;2023-01-15T09:48:31;96537.91;;;5.19;88.18
38912;BME280;28444;48.056;14.408;2023-01-15T09:51:11;96522.38;;;5.19;88.90
38912;BME280;28444;48.056;14.408;2023-01-15T09:54:05;96530.00;;;5.13;87.53
38912;BME280;28444;48.056;14.408;2023-01-15T09:56:37;96530.72;;;5.14;88.95
38912;BME280;28444;48.056;14.408;2023-01-15T10:02:04;96517.56;;;5.02;87.27
38912;BME280;28444;48.056;14.408;2023-01-15T10:04:42;96512.69;;;5.01;88.50
38912;BME280;28444;48.056;14.408;2023-01-15T10:07:24;96522.78;;;5.08;87.91
38912;BME280;28444;48.056;14.408;2023-01-15T10:10:08;96534.13;;;5.14;89.43
38912;BME280;28444;48.056;14.408;2023-01-15T10:12:35;96522.41;;;5.12;88.31
38912;BME280;28444;48.056;14.408;2023-01-15T10:15:35;96510.84;;;5.11;88.29
38912;BME280;28444;48.056;14.408;2023-01-15T10:18:04;96514.97;;;5.20;88.00
38912;BME280;28444;48.056;14.408;2023-01-15T10:26:30;96517.97;;;5.31;88.53
38912;BME280;28444;48.056;14.408;2023-01-15T10:29:25;96505.13;;;5.32;88.43
38912;BME280;28444;48.056;14.408;2023-01-15T10:35:37;96492.09;;;5.38;88.04
38912;BME280;28444;48.056;14.408;2023-01-15T10:41:49;96477.31;;;5.31;89.76
38912;BME280;28444;48.056;14.408;2023-01-15T10:44:25;96465.84;;;5.41;89.49
38912;BME280;28444;48.056;14.408;2023-01-15T10:46:59;96468.78;;;5.35;89.22
38912;BME280;28444;48.056;14.408;2023-01-15T10:49:28;96449.03;;;5.42;89.26
38912;BME280;28444;48.056;14.408;2023-01-15T10:51:57;96447.94;;;5.45;89.38
38912;BME280;28444;48.056;14.408;2023-01-15T10:54:40;96431.44;;;5.51;90.11
38912;BME280;28444;48.056;14.408;2023-01-15T10:57:46;96425.22;;;5.58;89.21
38912;BME280;28444;48.056;14.408;2023-01-15T11:00:24;96417.25;;;5.60;89.50
38912;BME280;28444;48.056;14.408;2023-01-15T11:03:03;96425.88;;;5.66;89.07
38912;BME280;28444;48.056;14.408;2023-01-15T11:05:34;96413.13;;;5.76;88.47
38912;BME280;28444;48.056;14.408;2023-01-15T11:08:04;96414.63;;;5.70;88.67
38912;BME280;28444;48.056;14.408;2023-01-15T11:10:52;96402.84;;;5.75;88.50
38912;BME280;28444;48.056;14.408;2023-01-15T11:13:22;96408.41;;;5.77;88.74
38912;BME280;28444;48.056;14.408;2023-01-15T11:16:20;96417.06;;;5.83;87.22
38912;BME280;28444;48.056;14.408;2023-01-15T11:19:33;96415.69;;;5.74;87.65
38912;BME280;28444;48.056;14.408;2023-01-15T11:22:18;96421.41;;;5.61;88.10
38912;BME280;28444;48.056;14.408;2023-01-15T11:24:52;96423.41;;;5.61;87.98
38912;BME280;28444;48.056;14.408;2023-01-15T11:27:23;96423.22;;;5.59;89.09
38912;BME280;28444;48.056;14.408;2023-01-15T11:30:02;96401.00;;;5.60;89.08
38912;BME280;28444;48.056;14.408;2023-01-15T11:32:39;96404.28;;;5.76;88.70
38912;BME280;28444;48.056;14.408;2023-01-15T11:35:24;96377.63;;;5.65;90.16
38912;BME280;28444;48.056;14.408;2023-01-15T11:38:20;96377.78;;;5.84;88.58
38912;BME280;28444;48.056;14.408;2023-01-15T11:40:56;96387.28;;;5.75;89.30
38912;BME280;28444;48.056;14.408;2023-01-15T11:43:27;96374.03;;;5.79;88.61
38912;BME280;28444;48.056;14.408;2023-01-15T11:46:29;96368.28;;;5.75;88.98
38912;BME280;28444;48.056;14.408;2023-01-15T11:49:17;96383.13;;;5.57;90.08
38912;BME280;28444;48.056;14.408;2023-01-15T11:52:09;96402.19;;;5.67;89.52
38912;BME280;28444;48.056;14.408;2023-01-15T11:54:41;96401.47;;;5.84;87.96
38912;BME280;28444;48.056;14.408;2023-01-15T11:57:09;96384.94;;;5.54;89.15
38912;BME280;28444;48.056;14.408;2023-01-15T11:59:36;96386.59;;;5.50;91.36
38912;BME280;28444;48.056;14.408;2023-01-15T12:02:15;96380.63;;;5.51;91.64
38912;BME280;28444;48.056;14.408;2023-01-15T12:04:58;96382.53;;;5.59;92.17
38912;BME280;28444;48.056;14.408;2023-01-15T12:07:26;96379.38;;;5.70;91.95
38912;BME280;28444;48.056;14.408;2023-01-15T12:10:23;96398.34;;;5.70;93.12
38912;BME280;28444;48.056;14.408;2023-01-15T12:13:13;96388.84;;;5.61;93.51
38912;BME280;28444;48.056;14.408;2023-01-15T12:16:37;96395.56;;;5.60;95.07
38912;BME280;28444;48.056;14.408;2023-01-15T12:21:47;96425.03;;;5.39;98.71
38912;BME280;28444;48.056;14.408;2023-01-15T12:30:51;96409.84;;;5.36;100.00
38912;BME280;28444;48.056;14.408;2023-01-15T12:33:35;96405.81;;;5.44;99.67
38912;BME280;28444;48.056;14.408;2023-01-15T12:37:02;96415.22;;;5.43;100.00
38912;BME280;28444;48.056;14.408;2023-01-15T12:39:23;96444.97;;;5.51;100.00
38912;BME280;28444;48.056;14.408;2023-01-15T12:41:56;96441.50;;;5.58;100.00
38912;BME280;28444;48.056;14.408;2023-01-15T12:44:48;96440.78;;;5.58;100.00
38912;BME280;28444;48.056;14.408;2023-01-15T12:47:43;96445.25;;;5.63;100.00
38912;BME280;28444;48.056;14.408;2023-01-15T12:52:56;96453.63;;;5.57;100.00
38912;BME280;28444;48.056;14.408;2023-01-15T12:55:28;96455.63;;;5.57;100.00
38912;BME280;28444;48.056;14.408;2023-01-15T12:57:59;96461.19;;;5.59;100.00
38912;BME280;28444;48.056;14.408;2023-01-15T13:00:30;96479.69;;;5.77;100.00
38912;BME280;28444;48.056;14.408;2023-01-15T13:03:27;96490.03;;;5.71;99.25
38912;BME280;28444;48.056;14.408;2023-01-15T13:05:57;96487.47;;;5.73;99.24
38912;BME280;28444;48.056;14.408;2023-01-15T13:08:42;96518.06;;;5.74;99.80
38912;BME280;28444;48.056;14.408;2023-01-15T13:11:13;96536.59;;;5.60;100.00
38912;BME280;28444;48.056;14.408;2023-01-15T13:13:40;96551.94;;;5.65;100.00
38912;BME280;28444;48.056;14.408;2023-01-15T13:19:33;96599.38;;;5.57;98.14
38912;BME280;28444;48.056;14.408;2023-01-15T13:22:09;96608.78;;;5.55;98.01
38912;BME280;28444;48.056;14.408;2023-01-15T13:25:31;96624.53;;;5.49;100.00
38912;BME280;28444;48.056;14.408;2023-01-15T13:28:35;96644.41;;;5.52;100.00
38912;BME280;28444;48.056;14.408;2023-01-15T13:31:42;96660.34;;;5.40;100.00
38912;BME280;28444;48.056;14.408;2023-01-15T13:34:20;96675.75;;;5.38;100.00
38912;BME280;28444;48.056;14.408;2023-01-15T13:36:48;96690.91;;;5.41;100.00
38912;BME280;28444;48.056;14.408;2023-01-15T13:39:22;96705.19;;;5.34;100.00
38912;BME280;28444;48.056;14.408;2023-01-15T13:41:51;96720.25;;;5.27;100.00
38912;BME280;28444;48.056;14.408;2023-01-15T13:44:49;96735.97;;;5.21;100.00
38912;BME280;28444;48.056;14.408;2023-01-15T13:47:20;96754.41;;;5.15;100.00
38912;BME280;28444;48.056;14.408;2023-01-15T13:50:02;96757.09;;;5.15;100.00
38912;BME280;28444;48.056;14.408;2023-01-15T13:52:35;96765.25;;;5.15;100.00
38912;BME280;28444;48.056;14.408;2023-01-15T13:57:42;96803.91;;;5.15;100.00
38912;BME280;28444;48.056;14.408;2023-01-15T14:00:34;96805.16;;;5.22;100.00
38912;BME280;28444;48.056;14.408;2023-01-15T14:03:28;96820.34;;;5.25;100.00
38912;BME280;28444;48.056;14.408;2023-01-15T14:06:00;96831.03;;;5.23;100.00
38912;BME280;28444;48.056;14.408;2023-01-15T14:08:44;96838.97;;;5.21;100.00
38912;BME280;28444;48.056;14.408;2023-01-15T14:11:34;96839.34;;;5.25;100.00
38912;BME280;28444;48.056;14.408;2023-01-15T14:17:55;96855.44;;;5.30;100.00
38912;BME280;28444;48.056;14.408;2023-01-15T14:20:49;96868.41;;;5.40;100.00
38912;BME280;28444;48.056;14.408;2023-01-15T14:27:02;96893.19;;;5.36;100.00